Time;durP1;ratioP1;P1;durP2;ratioP2;P2;SDS_P1;SDS_P2;PMS_P1;PMS_P2;Temp;Humidity;BMP_temperature;BMP_pressure;BME280_temperature;BME280_humidity;BME280_pressure;Samples;Min_cycle;Max_cycle;Signal;HPM_P1;HPM_P2
2023/01/18 00:05:44;;;;;;;18.30;13.20;;;;;;;-21.01;79.80;78727.83;102208;1291;1001673;-60
2023/01/18 00:08:12;;;;;;;;;;;;;;;-128.00;-1.00;-1.00;101047;1269;1011328;-59
2023/01/18 00:10:39;;;;;;;;;;;;;;;-128.00;-1.00;-1.00;101686;1258;1003014;-59
2023/01/18 00:13:06;;;;;;;19.30;15.40;;;;;;;-128.00;-1.00;-1.00;101494;1257;1002432;-60
2023/01/18 00:15:34;;;;;;;21.60;15.10;;;;;;;-128.00;-1.00;-1.00;101586;1258;1002638;-59
2023/01/18 00:18:02;;;;;;;20.00;14.40;;;;;;;-128.00;-1.00;-1.00;101504;1257;1002373;-59
2023/01/18 00:20:29;;;;;;;24.40;16.10;;;;;;;-128.00;-1.00;-1.00;101600;1254;1003627;-59
2023/01/18 00:22:58;;;;;;;21.70;15.40;;;;;;;-128.00;-1.00;-1.00;101790;1260;1003045;-59
2023/01/18 00:25:25;;;;;;;20.10;14.00;;;;;;;-128.00;-1.00;-1.00;101660;1256;1016210;-59
2023/01/18 00:27:54;;;;;;;18.30;13.80;;;;;;;-128.00;-1.00;-1.00;101661;1255;1003861;-59
2023/01/18 00:30:24;;;;;;;20.40;14.70;;;;;;;-128.00;-1.00;-1.00;101776;1257;1012853;-60
2023/01/18 00:32:54;;;;;;;26.30;15.00;;;;;;;-128.00;-1.00;-1.00;101778;1260;1010577;-59
2023/01/18 00:35:22;;;;;;;21.80;14.40;;;;;;;-128.00;-1.00;-1.00;101659;1260;1014270;-58
2023/01/18 00:37:50;;;;;;;18.30;13.90;;;;;;;-128.00;-1.00;-1.00;101650;1257;1003280;-59
2023/01/18 00:40:18;;;;;;;16.20;12.90;;;;;;;-128.00;-1.00;-1.00;101775;1259;1013635;-60
2023/01/18 00:45:31;;;;;;;15.70;13.30;;;;;;;-128.00;-1.00;-1.00;101755;1258;1009994;-59
2023/01/18 00:47:58;;;;;;;20.80;14.40;;;;;;;-128.00;-1.00;-1.00;101878;1257;1003395;-59
2023/01/18 00:50:26;;;;;;;19.00;14.10;;;;;;;-128.00;-1.00;-1.00;101618;1256;1003138;-59
2023/01/18 00:52:56;;;;;;;15.50;13.20;;;;;;;-128.00;-1.00;-1.00;101606;1254;1003376;-60
2023/01/18 00:55:24;;;;;;;17.20;12.30;;;;;;;-128.00;-1.00;-1.00;101729;1261;1014946;-59
2023/01/18 00:57:51;;;;;;;19.60;12.40;;;;;;;-128.00;-1.00;-1.00;101682;1254;1003560;-59
2023/01/18 01:00:18;;;;;;;22.90;13.50;;;;;;;-128.00;-1.00;-1.00;101736;1254;1002743;-60
2023/01/18 01:02:45;;;;;;;18.80;13.50;;;;;;;-128.00;-1.00;-1.00;101721;1261;1003459;-59
2023/01/18 01:08:04;;;;;;;19.20;11.90;;;;;;;-128.00;-1.00;-1.00;101583;1257;1013131;-58
2023/01/18 01:10:32;;;;;;;16.30;12.50;;;;;;;-128.00;-1.00;-1.00;101522;1258;1010663;-58
2023/01/18 01:26:49;;;;;;;17.70;12.80;;;;;;;-128.00;-1.00;-1.00;101513;1257;1011852;-59
2023/01/18 01:29:16;;;;;;;17.40;11.50;;;;;;;-128.00;-1.00;-1.00;101492;1257;1003134;-59
2023/01/18 01:31:43;;;;;;;15.80;12.10;;;;;;;-128.00;-1.00;-1.00;101445;1257;1002737;-59
2023/01/18 01:34:10;;;;;;;17.60;11.80;;;;;;;-128.00;-1.00;-1.00;101451;1256;1002414;-59
2023/01/18 01:36:37;;;;;;;16.00;11.00;;;;;;;-128.00;-1.00;-1.00;101477;1258;1002445;-59
2023/01/18 01:39:05;;;;;;;16.40;11.80;;;;;;;-128.00;-1.00;-1.00;101486;1262;1002384;-58
2023/01/18 01:41:33;;;;;;;12.60;11.00;;;;;;;-128.00;-1.00;-1.00;101495;1262;1012798;-59
2023/01/18 01:44:23;;;;;;;16.10;12.10;;;;;;;-128.00;-1.00;-1.00;101434;1257;1003287;-58
2023/01/18 01:46:59;;;;;;;16.70;11.90;;;;;;;-128.00;-1.00;-1.00;101400;1264;1012504;-58
2023/01/18 01:49:33;;;;;;;16.60;12.20;;;;;;;-128.00;-1.00;-1.00;101417;1263;1010006;-58
2023/01/18 01:52:06;;;;;;;18.90;11.70;;;;;;;-128.00;-1.00;-1.00;101441;1257;1012955;-58
2023/01/18 01:54:32;;;;;;;20.90;12.10;;;;;;;-128.00;-1.00;-1.00;101478;1258;1013138;-58
2023/01/18 01:57:25;;;;;;;19.90;12.10;;;;;;;-128.00;-1.00;-1.00;101465;1257;1002756;-58
2023/01/18 02:00:01;;;;;;;17.90;11.50;;;;;;;-128.00;-1.00;-1.00;101529;1262;1014197;-58
2023/01/18 02:02:37;;;;;;;17.50;11.40;;;;;;;-128.00;-1.00;-1.00;101520;1258;1009987;-58
2023/01/18 06:00:40;;;;;;;9.60;8.30;;;;;;;-19.67;79.80;78549.88;102199;1288;1001761;-59
2023/01/18 06:03:08;;;;;;;13.10;10.60;;;;;;;-128.00;-1.00;-1.00;101410;1264;1011549;-61
2023/01/18 06:05:36;;;;;;;18.50;11.90;;;;;;;-128.00;-1.00;-1.00;101387;1264;1014280;-62
2023/01/18 06:08:03;;;;;;;16.70;11.20;;;;;;;-128.00;-1.00;-1.00;100990;1266;1002409;-61
2023/01/18 06:10:30;;;;;;;18.00;11.50;;;;;;;-128.00;-1.00;-1.00;101094;1265;1002248;-61
2023/01/18 06:12:58;;;;;;;16.90;11.80;;;;;;;-128.00;-1.00;-1.00;101061;1264;1002866;-61
2023/01/18 06:15:25;;;;;;;16.50;10.90;;;;;;;-128.00;-1.00;-1.00;101344;1263;1003625;-59
2023/01/18 06:17:52;;;;;;;15.40;10.30;;;;;;;-128.00;-1.00;-1.00;101574;1263;1002369;-59
2023/01/18 06:20:19;;;;;;;16.00;11.10;;;;;;;-128.00;-1.00;-1.00;101556;1263;1004303;-61
2023/01/18 06:22:47;;;;;;;19.50;11.70;;;;;;;-128.00;-1.00;-1.00;101420;1268;1002754;-59
2023/01/18 06:25:14;;;;;;;16.50;11.10;;;;;;;-128.00;-1.00;-1.00;101541;1263;1002757;-59
2023/01/18 06:27:41;;;;;;;17.30;11.00;;;;;;;-128.00;-1.00;-1.00;101392;1263;1003750;-59
2023/01/18 06:30:09;;;;;;;11.50;9.40;;;;;;;-128.00;-1.00;-1.00;101436;1267;1003078;-59
2023/01/18 06:32:36;;;;;;;11.50;8.80;;;;;;;-128.00;-1.00;-1.00;101407;1262;1012607;-58
2023/01/18 06:35:04;;;;;;;15.80;9.40;;;;;;;-128.00;-1.00;-1.00;101428;1263;1002854;-58
2023/01/18 06:37:31;;;;;;;11.60;9.30;;;;;;;-128.00;-1.00;-1.00;102630;1261;1002772;-60
2023/01/18 06:39:58;;;;;;;13.00;8.70;;;;;;;-128.00;-1.00;-1.00;101017;1267;1002351;-59
2023/01/18 06:42:28;;;;;;;10.10;8.40;;;;;;;-128.00;-1.00;-1.00;100949;1266;1012471;-61
2023/01/18 06:44:56;;;;;;;9.80;8.40;;;;;;;-128.00;-1.00;-1.00;101068;1266;1002431;-62
2023/01/18 06:47:23;;;;;;;;;;;;;;;-128.00;-1.00;-1.00;101001;1265;1003917;-63
2023/01/18 06:49:51;;;;;;;15.80;9.30;;;;;;;-128.00;-1.00;-1.00;101002;1269;1003604;-59
2023/01/18 06:52:18;;;;;;;13.10;8.40;;;;;;;-128.00;-1.00;-1.00;100854;1265;1003866;-62
2023/01/18 06:54:46;;;;;;;15.20;9.10;;;;;;;-128.00;-1.00;-1.00;101072;1264;1002751;-64
2023/01/18 06:57:14;;;;;;;;;;;;;;;-128.00;-1.00;-1.00;100801;1267;1002836;-63
2023/01/18 06:59:42;;;;;;;12.70;8.60;;;;;;;-128.00;-1.00;-1.00;101008;1263;1004173;-64
2023/01/18 07:02:11;;;;;;;8.70;7.80;;;;;;;-128.00;-1.00;-1.00;101090;1263;1003611;-65
2023/01/18 07:04:42;;;;;;;11.30;7.40;;;;;;;-128.00;-1.00;-1.00;100817;1265;1010404;-63
2023/01/18 07:07:11;;;;;;;9.90;7.60;;;;;;;-128.00;-1.00;-1.00;100928;1271;1011184;-63
2023/01/18 07:09:39;;;;;;;12.40;7.60;;;;;;;-128.00;-1.00;-1.00;100929;1264;1012890;-62
2023/01/18 07:12:07;;;;;;;13.90;8.10;;;;;;;-128.00;-1.00;-1.00;101287;1264;1002799;-61
2023/01/18 07:14:34;;;;;;;11.90;8.20;;;;;;;-128.00;-1.00;-1.00;101351;1262;1005161;-62
2023/01/18 07:17:01;;;;;;;10.60;7.80;;;;;;;-128.00;-1.00;-1.00;100940;1264;1002946;-61
2023/01/18 07:19:29;;;;;;;11.50;8.30;;;;;;;-128.00;-1.00;-1.00;100791;1265;1002517;-62
2023/01/18 07:21:57;;;;;;;11.60;7.70;;;;;;;-128.00;-1.00;-1.00;101138;1265;1002878;-62
2023/01/18 07:24:25;;;;;;;10.10;7.30;;;;;;;-128.00;-1.00;-1.00;100993;1262;1012176;-62
2023/01/18 07:26:53;;;;;;;10.60;6.80;;;;;;;-128.00;-1.00;-1.00;101525;1267;1002461;-64
2023/01/18 07:29:21;;;;;;;12.90;7.60;;;;;;;-128.00;-1.00;-1.00;101499;1254;1002897;-62
2023/01/18 07:31:48;;;;;;;;;;;;;;;-128.00;-1.00;-1.00;101553;1254;1003883;-63
2023/01/18 07:34:16;;;;;;;12.40;7.30;;;;;;;-128.00;-1.00;-1.00;101530;1254;1002980;-62
2023/01/18 07:36:44;;;;;;;9.70;7.20;;;;;;;-128.00;-1.00;-1.00;101507;1258;1002227;-62
2023/01/18 07:39:11;;;;;;;12.20;8.00;;;;;;;-128.00;-1.00;-1.00;101681;1259;1005156;-61
2023/01/18 07:41:39;;;;;;;11.70;7.90;;;;;;;-128.00;-1.00;-1.00;101706;1254;1002619;-61
2023/01/18 07:44:09;;;;;;;11.40;7.40;;;;;;;-128.00;-1.00;-1.00;101754;1254;1012314;-60
2023/01/18 07:46:36;;;;;;;11.50;7.20;;;;;;;-128.00;-1.00;-1.00;101616;1255;1012936;-62
2023/01/18 07:49:04;;;;;;;11.40;8.00;;;;;;;-128.00;-1.00;-1.00;101669;1257;1002619;-61
2023/01/18 07:51:32;;;;;;;10.10;6.90;;;;;;;-128.00;-1.00;-1.00;101796;1258;1004444;-64
2023/01/18 07:54:00;;;;;;;10.90;6.80;;;;;;;-128.00;-1.00;-1.00;101552;1255;1010166;-62
2023/01/18 07:56:28;;;;;;;11.20;7.40;;;;;;;-128.00;-1.00;-1.00;101364;1254;1011165;-61
2023/01/18 07:58:55;;;;;;;12.00;7.40;;;;;;;-128.00;-1.00;-1.00;102147;1254;1004236;-61
2023/01/18 08:01:24;;;;;;;13.50;7.40;;;;;;;-128.00;-1.00;-1.00;101979;1256;1002598;-61
2023/01/18 08:03:53;;;;;;;12.10;7.30;;;;;;;-128.00;-1.00;-1.00;101679;1255;1012335;-60
2023/01/18 08:06:23;;;;;;;11.70;7.10;;;;;;;-128.00;-1.00;-1.00;101578;1254;1010101;-61
2023/01/18 08:08:51;;;;;;;12.10;7.60;;;;;;;-128.00;-1.00;-1.00;101927;1255;1011027;-60
2023/01/18 08:11:19;;;;;;;15.80;7.90;;;;;;;-128.00;-1.00;-1.00;101964;1255;1003154;-61
2023/01/18 08:13:48;;;;;;;;;;;;;;;-128.00;-1.00;-1.00;101833;1254;1002539;-60
2023/01/18 08:16:16;;;;;;;14.90;7.60;;;;;;;-128.00;-1.00;-1.00;101780;1263;1015882;-60
2023/01/18 08:18:47;;;;;;;;;;;;;;;-128.00;-1.00;-1.00;101934;1255;1003336;-60
2023/01/18 08:21:15;;;;;;;14.30;8.20;;;;;;;-128.00;-1.00;-1.00;102453;1256;1010478;-62
2023/01/18 08:23:42;;;;;;;9.60;7.40;;;;;;;-128.00;-1.00;-1.00;102416;1254;1003431;-62
2023/01/18 08:26:12;;;;;;;10.60;7.10;;;;;;;-128.00;-1.00;-1.00;101908;1260;1004425;-62
2023/01/18 08:28:40;;;;;;;13.40;8.20;;;;;;;-128.00;-1.00;-1.00;102253;1254;1013010;-63
2023/01/18 08:31:14;;;;;;;14.60;7.60;;;;;;;-128.00;-1.00;-1.00;101977;1254;1002248;-64
2023/01/18 08:33:47;;;;;;;10.10;6.70;;;;;;;-128.00;-1.00;-1.00;101943;1256;1012077;-61
2023/01/18 08:36:20;;;;;;;13.90;7.50;;;;;;;-128.00;-1.00;-1.00;102052;1254;1012815;-60
2023/01/18 08:38:55;;;;;;;12.80;8.10;;;;;;;-128.00;-1.00;-1.00;101916;1255;1012855;-59
2023/01/18 08:41:29;;;;;;;13.00;7.40;;;;;;;-128.00;-1.00;-1.00;102035;1255;1012878;-67
2023/01/18 08:43:58;;;;;;;13.90;7.50;;;;;;;-128.00;-1.00;-1.00;101950;1256;1010439;-63
2023/01/18 08:46:26;;;;;;;11.60;7.70;;;;;;;-128.00;-1.00;-1.00;101669;1256;1011575;-62
2023/01/18 08:48:55;;;;;;;11.70;7.60;;;;;;;-128.00;-1.00;-1.00;101911;1260;1004361;-62
2023/01/18 08:51:24;;;;;;;10.50;7.30;;;;;;;-128.00;-1.00;-1.00;101446;1264;1015585;-62
2023/01/18 08:53:53;;;;;;;11.10;7.80;;;;;;;-128.00;-1.00;-1.00;101972;1253;1013470;-61
2023/01/18 08:56:20;;;;;;;12.80;6.80;;;;;;;-128.00;-1.00;-1.00;101736;1255;1009775;-60
2023/01/18 08:58:50;;;;;;;13.60;7.30;;;;;;;-128.00;-1.00;-1.00;102662;1254;1003842;-60
2023/01/18 09:01:17;;;;;;;13.70;7.80;;;;;;;-128.00;-1.00;-1.00;102204;1259;1013784;-60
2023/01/18 09:03:46;;;;;;;11.80;7.10;;;;;;;-128.00;-1.00;-1.00;102044;1253;1004499;-59
2023/01/18 09:06:15;;;;;;;12.40;7.10;;;;;;;-128.00;-1.00;-1.00;102227;1257;1012306;-64
2023/01/18 09:08:45;;;;;;;15.60;7.90;;;;;;;-128.00;-1.00;-1.00;101844;1255;1010732;-65
2023/01/18 09:11:13;;;;;;;10.80;6.80;;;;;;;-128.00;-1.00;-1.00;101950;1253;1011074;-66
2023/01/18 09:13:40;;;;;;;;;;;;;;;-128.00;-1.00;-1.00;101909;1253;1003345;-61
2023/01/18 09:16:26;;;;;;;14.20;7.80;;;;;;;-128.00;-1.00;-1.00;101767;1256;1012812;-62
2023/01/18 09:18:55;;;;;;;18.20;7.50;;;;;;;-128.00;-1.00;-1.00;101798;1261;1002974;-63
2023/01/18 09:21:22;;;;;;;16.10;7.00;;;;;;;-128.00;-1.00;-1.00;102246;1255;1011492;-66
2023/01/18 09:23:50;;;;;;;13.20;7.60;;;;;;;-128.00;-1.00;-1.00;101872;1254;1003218;-61
2023/01/18 09:26:19;;;;;;;17.20;7.40;;;;;;;-128.00;-1.00;-1.00;101874;1256;1012986;-62
2023/01/18 09:28:51;;;;;;;18.20;7.70;;;;;;;-128.00;-1.00;-1.00;101991;1258;1013268;-62
2023/01/18 09:31:20;;;;;;;16.20;6.80;;;;;;;-128.00;-1.00;-1.00;102183;1259;1015967;-64
2023/01/18 09:33:47;;;;;;;12.60;7.30;;;;;;;-128.00;-1.00;-1.00;101800;1258;1011014;-63
2023/01/18 09:36:24;;;;;;;15.50;7.20;;;;;;;-128.00;-1.00;-1.00;102109;1253;1012201;-66
2023/01/18 09:38:55;;;;;;;13.70;7.90;;;;;;;-128.00;-1.00;-1.00;102222;1260;1012615;-66
2023/01/18 09:41:45;;;;;;;14.30;6.70;;;;;;;-128.00;-1.00;-1.00;102018;1262;1002687;-71
2023/01/18 15:48:56;;;;;;;10.80;6.70;;;;;;;9.42;100.00;98170.27;104288;1294;600956;-66
2023/01/18 15:51:51;;;;;;;14.70;7.00;;;;;;;10.26;100.00;98184.30;103639;1269;62235;-67
2023/01/18 15:54:18;;;;;;;8.70;5.80;;;;;;;10.52;100.00;98166.30;103870;1269;59932;-64
2023/01/18 15:56:45;;;;;;;14.40;5.80;;;;;;;10.66;100.00;98154.67;103717;1272;72988;-64
2023/01/18 15:59:14;;;;;;;9.20;4.90;;;;;;;10.77;100.00;98151.86;103561;1285;70787;-63
2023/01/18 16:01:43;;;;;;;13.00;5.70;;;;;;;10.88;100.00;98155.30;103633;1270;217548;-63
2023/01/18 16:04:22;;;;;;;10.80;4.70;;;;;;;10.99;100.00;98154.05;104143;1254;65447;-62
2023/01/18 16:06:50;;;;;;;12.30;4.60;;;;;;;11.06;100.00;98160.07;104367;1256;62008;-62
2023/01/18 16:09:20;;;;;;;10.80;5.50;;;;;;;11.09;100.00;98164.77;104228;1259;75034;-63
2023/01/18 16:11:55;;;;;;;13.30;5.00;;;;;;;11.12;100.00;98177.55;104616;1256;70844;-67
2023/01/18 16:14:33;;;;;;;11.10;4.00;;;;;;;11.25;100.00;98187.17;104450;1257;73776;-64
2023/01/18 16:17:03;;;;;;;13.30;4.40;;;;;;;11.31;100.00;98187.09;104392;1272;65252;-66
2023/01/18 16:19:50;;;;;;;9.90;4.60;;;;;;;11.35;100.00;98192.43;104276;1259;61478;-64
2023/01/18 16:22:32;;;;;;;17.10;5.30;;;;;;;11.39;100.00;98192.50;104309;1267;74267;-63
2023/01/18 16:25:07;;;;;;;11.80;4.40;;;;;;;11.43;100.00;98196.27;104281;1259;71823;-63
2023/01/18 16:27:51;;;;;;;11.00;4.20;;;;;;;11.47;100.00;98200.73;104274;1254;73903;-63
2023/01/18 16:30:38;;;;;;;8.90;4.30;;;;;;;11.48;100.00;98209.25;104620;1273;62289;-63
2023/01/18 16:33:16;;;;;;;11.20;4.50;;;;;;;11.53;100.00;98213.88;104490;1256;61484;-64
2023/01/18 16:35:44;;;;;;;9.00;4.30;;;;;;;11.54;100.00;98220.66;104393;1260;75162;-63
2023/01/18 16:38:14;;;;;;;8.70;4.60;;;;;;;11.52;100.00;98223.20;104461;1257;72343;-65
2023/01/18 16:40:43;;;;;;;10.40;4.10;;;;;;;11.58;100.00;98231.03;104224;1257;74373;-62
2023/01/18 16:43:26;;;;;;;11.20;3.80;;;;;;;11.62;100.00;98226.04;104292;1259;62853;-61
2023/01/18 16:45:54;;;;;;;17.80;4.20;;;;;;;11.67;100.00;98229.03;104617;1259;61439;-62
2023/01/18 16:48:23;;;;;;;12.10;4.30;;;;;;;11.68;100.00;98226.45;104408;1262;74950;-64
2023/01/18 16:50:51;;;;;;;10.40;4.20;;;;;;;11.70;100.00;98224.05;104550;1254;70841;-63
2023/01/18 16:53:18;;;;;;;12.90;5.60;;;;;;;11.71;100.00;98225.44;104585;1259;74794;-64
2023/01/18 16:55:47;;;;;;;11.20;5.10;;;;;;;11.71;100.00;98225.95;104589;1265;62866;-65
2023/01/18 16:58:14;;;;;;;9.80;4.80;;;;;;;11.71;100.00;98237.16;104799;1259;61810;-63
2023/01/18 17:00:53;;;;;;;15.00;4.80;;;;;;;11.74;100.00;98240.48;104707;1254;75314;-68
2023/01/18 17:03:20;;;;;;;13.90;5.20;;;;;;;11.71;100.00;98236.96;104625;1263;72620;-64
2023/01/18 17:05:47;;;;;;;12.40;4.00;;;;;;;11.73;100.00;98246.48;104488;1256;73608;-64
2023/01/18 17:08:15;;;;;;;8.60;3.90;;;;;;;11.74;100.00;98256.65;104539;1254;63000;-63
2023/01/18 17:10:43;;;;;;;15.40;4.80;;;;;;;11.72;100.00;98260.11;104707;1257;61649;-64
2023/01/18 17:13:11;;;;;;;14.10;4.40;;;;;;;11.71;100.00;98263.13;104467;1254;74036;-63
2023/01/18 17:15:40;;;;;;;10.80;4.40;;;;;;;11.73;100.00;98267.73;104255;1277;72882;-63
2023/01/18 17:18:14;;;;;;;14.60;4.90;;;;;;;11.69;100.00;98270.63;104331;1256;74698;-64
2023/01/18 17:20:41;;;;;;;17.40;6.00;;;;;;;11.65;100.00;98273.34;104361;1254;63340;-63
2023/01/18 17:23:09;;;;;;;11.70;3.90;;;;;;;11.67;100.00;98280.95;104283;1253;61113;-63
2023/01/18 17:25:36;;;;;;;11.10;3.90;;;;;;;11.69;100.00;98282.06;104495;1253;75378;-64
2023/01/18 17:28:03;;;;;;;9.40;3.90;;;;;;;11.65;100.00;98284.83;104284;1259;70124;-66
2023/01/18 17:30:31;;;;;;;10.10;3.70;;;;;;;11.62;100.00;98291.12;104396;1269;76484;-64
2023/01/18 17:32:59;;;;;;;7.20;3.80;;;;;;;11.65;100.00;98310.43;104508;1262;62957;-63
2023/01/18 17:35:27;;;;;;;12.50;4.10;;;;;;;11.66;100.00;98301.04;104301;1259;61043;-63
2023/01/18 17:37:56;;;;;;;10.70;4.10;;;;;;;11.67;100.00;98311.34;104349;1259;74722;-71
2023/01/18 17:40:37;;;;;;;13.00;4.10;;;;;;;11.65;100.00;98316.05;104447;1262;70894;-66
2023/01/18 17:43:11;;;;;;;13.20;4.20;;;;;;;11.65;100.00;98317.27;104417;1259;75362;-67
2023/01/18 17:45:43;;;;;;;15.70;4.00;;;;;;;11.65;100.00;98317.45;104255;1273;62050;-66
2023/01/18 17:48:24;;;;;;;11.80;4.00;;;;;;;11.61;100.00;98321.55;104324;1258;61866;-66
2023/01/18 17:50:51;;;;;;;12.90;4.10;;;;;;;11.68;100.00;98322.67;104605;1254;76942;-65
2023/01/18 17:53:18;;;;;;;11.90;4.30;;;;;;;11.69;100.00;98322.44;104340;1257;70416;-65
2023/01/18 17:55:45;;;;;;;12.40;4.00;;;;;;;11.72;100.00;98335.05;104339;1259;73766;-64
2023/01/18 17:58:12;;;;;;;13.80;4.10;;;;;;;11.72;100.00;98325.43;104243;1254;62506;-65
2023/01/18 18:00:39;;;;;;;12.20;4.20;;;;;;;11.74;100.00;98350.90;104265;1267;61252;-66
2023/01/18 18:03:07;;;;;;;14.20;4.90;;;;;;;11.77;100.00;98365.40;104329;1259;74766;-67
2023/01/18 18:05:35;;;;;;;13.30;4.20;;;;;;;11.80;100.00;98374.36;104303;1269;70091;-62
2023/01/18 18:08:02;;;;;;;14.20;4.30;;;;;;;11.85;100.00;98367.52;104296;1277;76242;-63
2023/01/18 22:14:09;;;;;;;8.10;4.00;;;;;;;7.29;100.00;98673.21;101959;1294;601069;-68
2023/01/18 22:16:37;;;;;;;;;;;;;;;-19.15;79.80;78977.05;103145;1267;1002057;-67
2023/01/18 22:19:04;;;;;;;8.80;4.70;;;;;;;-128.00;-1.00;-1.00;101412;1265;1010827;-69
2023/01/18 22:21:31;;;;;;;13.60;5.10;;;;;;;-128.00;-1.00;-1.00;101124;1264;1002782;-67
2023/01/18 22:23:58;;;;;;;11.50;4.60;;;;;;;-128.00;-1.00;-1.00;101107;1266;1002501;-67
2023/01/18 22:26:27;;;;;;;11.20;5.00;;;;;;;-128.00;-1.00;-1.00;101136;1267;1002666;-70
2023/01/18 22:28:54;;;;;;;13.80;4.70;;;;;;;-128.00;-1.00;-1.00;101311;1264;1014550;-70
2023/01/18 22:31:22;;;;;;;8.10;4.00;;;;;;;-128.00;-1.00;-1.00;101425;1263;1002595;-68
2023/01/18 22:33:49;;;;;;;9.10;4.60;;;;;;;-128.00;-1.00;-1.00;101452;1268;1002774;-68
2023/01/18 22:36:16;;;;;;;8.30;4.70;;;;;;;-128.00;-1.00;-1.00;101446;1263;1002435;-68
2023/01/18 22:38:44;;;;;;;10.50;4.80;;;;;;;-128.00;-1.00;-1.00;101441;1263;1003601;-70
2023/01/18 22:41:13;;;;;;;13.90;5.00;;;;;;;-128.00;-1.00;-1.00;101420;1264;1002616;-66
2023/01/18 22:43:40;;;;;;;14.00;5.50;;;;;;;-128.00;-1.00;-1.00;101924;1253;1010979;-70
2023/01/18 22:46:07;;;;;;;11.50;4.80;;;;;;;-128.00;-1.00;-1.00;101819;1251;1003505;-69
2023/01/18 22:48:35;;;;;;;14.60;4.80;;;;;;;-128.00;-1.00;-1.00;101895;1251;1004069;-68
2023/01/18 22:51:04;;;;;;;8.80;3.90;;;;;;;-128.00;-1.00;-1.00;101791;1256;1003727;-70
2023/01/18 22:53:31;;;;;;;11.30;4.70;;;;;;;-128.00;-1.00;-1.00;101877;1252;1010502;-70
2023/01/18 22:56:02;;;;;;;10.60;4.60;;;;;;;-128.00;-1.00;-1.00;101806;1251;1002289;-69
2023/01/18 22:58:30;;;;;;;12.30;4.70;;;;;;;-128.00;-1.00;-1.00;101950;1251;1013170;-70
2023/01/18 23:00:57;;;;;;;14.70;5.50;;;;;;;-128.00;-1.00;-1.00;101744;1257;1002662;-69
2023/01/18 23:03:25;;;;;;;16.50;5.30;;;;;;;-128.00;-1.00;-1.00;101904;1254;1004109;-64
2023/01/18 23:05:53;;;;;;;8.10;4.30;;;;;;;-128.00;-1.00;-1.00;101747;1257;1003036;-67
2023/01/18 23:08:21;;;;;;;9.20;4.50;;;;;;;-128.00;-1.00;-1.00;101887;1254;1010870;-64
2023/01/18 23:10:53;;;;;;;9.10;5.00;;;;;;;-128.00;-1.00;-1.00;101852;1251;1002816;-66
2023/01/18 23:13:20;;;;;;;13.70;5.80;;;;;;;-128.00;-1.00;-1.00;101731;1254;1014629;-67
2023/01/18 23:18:34;;;;;;;12.40;5.30;;;;;;;-128.00;-1.00;-1.00;101892;1254;1010016;-65
2023/01/18 23:21:01;;;;;;;9.20;4.80;;;;;;;-128.00;-1.00;-1.00;101846;1256;1004805;-66
2023/01/18 23:23:28;;;;;;;11.70;5.20;;;;;;;-128.00;-1.00;-1.00;101759;1254;1003197;-64
2023/01/18 23:25:56;;;;;;;14.10;5.90;;;;;;;-128.00;-1.00;-1.00;101793;1254;1004009;-64
2023/01/18 23:28:40;;;;;;;12.40;5.50;;;;;;;-128.00;-1.00;-1.00;101791;1257;1002811;-63
2023/01/18 23:31:12;;;;;;;13.50;5.00;;;;;;;-128.00;-1.00;-1.00;101793;1254;1011175;-68
2023/01/18 23:33:40;;;;;;;7.80;4.50;;;;;;;-128.00;-1.00;-1.00;101798;1254;1011856;-64
2023/01/18 23:36:08;;;;;;;13.80;5.50;;;;;;;-128.00;-1.00;-1.00;101751;1255;1003218;-68
2023/01/18 23:55:11;;;;;;;12.00;6.50;;;;;;;-128.00;-1.00;-1.00;101849;1254;1013860;-67
2023/01/18 23:57:38;;;;;;;10.30;5.50;;;;;;;-128.00;-1.00;-1.00;101839;1254;1003292;-65
